Skip Navigation Links
NOAA logo - Click to go to the NOAA homepage
NOAA's National Weather Service
Alaska Aviation Weather Unit
  NWS logo - Click to go to the NWS homepage
Left Navbar Graphic     19 AKDT = 03 GMT

   
NOAA is celebrating 200 years of science, service, and stewardship. Visit the NOAA 200th celebration Web site to learn more.
USA.gov is the U.S. Government's official Web portal to all Federal, state and local government Web resources and services.
Facebook
NWS on Facebook

Important Change Regarding the AAWU Web Presence

 

Over the last several months, the AAWU has been working to navigate its webpages to a nationally supported server. Security, as well as other needs, have necessitated the change.  In the process, we have made an effort to enhance the functionality of our website, as well as some of our products. As of June 20, 2017, aawu.arh.noaa.gov will be discontinued. The new AAWU web address is weather.gov/aawu. It is now live and will run in-parallel with the old site until it is discontinued. Please send any feedback or questions regarding the new webpages to nws.ar.aawu.webauthors@noaa.gov.  Thank you for your patience during this time of transition.
AAWU Home :: Display TAF Add Bookmark
METAR PAIM 242155Z AUTO 15009KT 120V180 10SM -RA OVC026 07/03 A2968=

METAR PAIM 242255Z AUTO 14007KT 10SM -SHRA BKN027 07/03 A2966=

PAIM 242353Z AUTO 15014KT 120V200 10SM BKN032 09/02 A2964=

METAR PAIM 242355Z AUTO 15014KT 120V180 10SM BKN032 09/02 A2964=

PAIM 250053Z AUTO 16011KT 10SM -SHRA BKN034 09/02 A2962=

METAR PAIM 250055Z AUTO 15010KT 130V190 10SM -RA BKN034 09/02 A2963=

METAR PAIM 250155Z AUTO VRB06KT 10SM -SHRA BKN032 09/03 A2963=


NOAA's National Weather Service
Alaska Aviation Weather Unit
6930 Sand Lake Road
Anchorage, AK 99502-1845
Disclaimer
Credits
Glossary
Privacy Policy
About Us
Career Opportunities
Contact AAWU Internet Services Site last modified: April, 17th 2012